Time;durP1;ratioP1;P1;durP2;ratioP2;P2;SDS_P1;SDS_P2;PMS_P1;PMS_P2;Temp;Humidity;BMP_temperature;BMP_pressure;BME280_temperature;BME280_humidity;BME280_pressure;Samples;Min_cycle;Max_cycle;Signal;HPM_P1;HPM_P2
2024/02/25 00:01:18;;;;;;;11.02;3.70;;;;;;;;;;5068020;28;20398;-32
2024/02/25 00:03:45;;;;;;;15.10;3.97;;;;;;;;;;5059559;28;20483;-34
2024/02/25 00:06:12;;;;;;;12.73;3.55;;;;;;;;;;5069573;28;20028;-33
2024/02/25 00:08:39;;;;;;;10.65;3.67;;;;;;;;;;5066940;28;20043;-32
2024/02/25 00:11:06;;;;;;;14.13;3.85;;;;;;;;;;5068127;28;20032;-34
2024/02/25 00:13:33;;;;;;;14.30;4.20;;;;;;;;;;5069929;28;20547;-33
2024/02/25 00:16:00;;;;;;;14.52;3.92;;;;;;;;;;5060301;28;20066;-33
2024/02/25 00:18:27;;;;;;;16.60;3.50;;;;;;;;;;5055354;28;20025;-34
2024/02/25 00:20:54;;;;;;;11.82;3.50;;;;;;;;;;5052898;28;20025;-33
2024/02/25 00:23:21;;;;;;;15.70;4.10;;;;;;;;;;5064140;28;20050;-38
2024/02/25 00:25:48;;;;;;;17.73;4.30;;;;;;;;;;5039516;28;20029;-34
2024/02/25 00:28:15;;;;;;;12.70;3.83;;;;;;;;;;5055352;28;20044;-32
2024/02/25 00:30:42;;;;;;;21.30;5.05;;;;;;;;;;5050758;28;20691;-34
2024/02/25 00:33:09;;;;;;;19.17;4.97;;;;;;;;;;5061144;28;20028;-32
2024/02/25 00:35:36;;;;;;;26.58;4.88;;;;;;;;;;5062028;28;20057;-32
2024/02/25 00:38:03;;;;;;;16.13;4.28;;;;;;;;;;5053572;28;20707;-35
2024/02/25 00:40:31;;;;;;;15.75;4.13;;;;;;;;;;5048292;28;20388;-33
2024/02/25 00:42:58;;;;;;;11.40;3.92;;;;;;;;;;5057181;28;20124;-34
2024/02/25 00:45:25;;;;;;;15.18;4.13;;;;;;;;;;5053040;28;20098;-33
2024/02/25 00:47:52;;;;;;;15.75;4.60;;;;;;;;;;5060430;28;20118;-35
2024/02/25 00:50:19;;;;;;;18.73;4.40;;;;;;;;;;5062416;28;20036;-34
2024/02/25 00:52:46;;;;;;;16.52;4.70;;;;;;;;;;5051355;28;20029;-34
2024/02/25 00:55:13;;;;;;;14.70;3.97;;;;;;;;;;5052652;28;20032;-34
2024/02/25 00:57:40;;;;;;;17.55;4.30;;;;;;;;;;5051513;28;20052;-33
2024/02/25 01:00:07;;;;;;;11.70;4.68;;;;;;;;;;5064466;28;20079;-32
2024/02/25 01:02:34;;;;;;;12.20;4.22;;;;;;;;;;5051950;28;20029;-34
2024/02/25 01:05:02;;;;;;;13.38;4.28;;;;;;;;;;5066397;28;20056;-33
2024/02/25 01:07:29;;;;;;;10.10;4.05;;;;;;;;;;5074340;28;20032;-32
2024/02/25 01:09:56;;;;;;;15.27;3.70;;;;;;;;;;5056613;28;20029;-34
2024/02/25 01:12:23;;;;;;;12.98;4.00;;;;;;;;;;5066980;28;20035;-33
2024/02/25 01:14:50;;;;;;;12.98;4.20;;;;;;;;;;5069430;28;20036;-34
2024/02/25 01:17:17;;;;;;;19.90;4.80;;;;;;;;;;5067276;28;20032;-33
2024/02/25 01:19:44;;;;;;;23.08;5.32;;;;;;;;;;5056686;28;20067;-33
2024/02/25 01:22:11;;;;;;;21.05;4.72;;;;;;;;;;5054921;28;20033;-32
2024/02/25 01:24:38;;;;;;;20.98;5.47;;;;;;;;;;5054841;28;20446;-34
2024/02/25 01:27:05;;;;;;;11.52;4.38;;;;;;;;;;5054897;28;20796;-33
2024/02/25 01:29:32;;;;;;;13.40;4.60;;;;;;;;;;5055033;28;20127;-34
2024/02/25 01:31:59;;;;;;;18.73;5.07;;;;;;;;;;5055009;28;20037;-34
2024/02/25 01:34:28;;;;;;;12.38;4.00;;;;;;;;;;5055171;28;20059;-33
2024/02/25 01:36:55;;;;;;;10.27;4.00;;;;;;;;;;5054879;28;20384;-32
2024/02/25 01:39:22;;;;;;;11.82;3.72;;;;;;;;;;5054827;28;20103;-33
2024/02/25 01:41:57;;;;;;;10.20;3.72;;;;;;;;;;5054843;28;20141;-35
2024/02/25 01:44:24;;;;;;;9.77;3.58;;;;;;;;;;5054726;28;20044;-33
2024/02/25 01:46:52;;;;;;;8.93;3.85;;;;;;;;;;5054879;28;20564;-32
2024/02/25 01:49:19;;;;;;;9.10;3.65;;;;;;;;;;5054607;28;20051;-35
2024/02/25 01:51:46;;;;;;;7.40;3.45;;;;;;;;;;5054777;28;20402;-32
2024/02/25 01:54:14;;;;;;;9.88;3.47;;;;;;;;;;5054648;28;20516;-33
2024/02/25 01:56:41;;;;;;;7.18;3.20;;;;;;;;;;5054734;28;20112;-32
2024/02/25 01:59:09;;;;;;;8.20;2.85;;;;;;;;;;5054503;28;20033;-33
2024/02/25 02:01:36;;;;;;;13.00;3.22;;;;;;;;;;5054490;28;20048;-32
2024/02/25 02:04:03;;;;;;;8.98;2.90;;;;;;;;;;5054580;28;20029;-32
2024/02/25 02:06:34;;;;;;;10.23;2.78;;;;;;;;;;5054423;28;20031;-33
2024/02/25 02:09:01;;;;;;;8.38;3.00;;;;;;;;;;5054422;28;20036;-33
2024/02/25 02:11:28;;;;;;;9.93;2.67;;;;;;;;;;5054332;28;20040;-33
2024/02/25 02:13:55;;;;;;;9.98;3.20;;;;;;;;;;5054346;28;20494;-33
2024/02/25 02:16:24;;;;;;;9.30;3.20;;;;;;;;;;5036278;28;20464;-36
2024/02/25 02:18:52;;;;;;;8.63;3.20;;;;;;;;;;5053239;28;20087;-34
2024/02/25 02:21:19;;;;;;;6.60;2.80;;;;;;;;;;5054337;28;20029;-33
2024/02/25 02:23:46;;;;;;;9.80;2.95;;;;;;;;;;5054088;28;20032;-33
2024/02/25 02:26:14;;;;;;;7.35;2.72;;;;;;;;;;5054184;28;20021;-33
2024/02/25 02:28:41;;;;;;;6.53;2.92;;;;;;;;;;5054086;28;20040;-34
2024/02/25 02:31:08;;;;;;;5.47;2.15;;;;;;;;;;5054049;28;20089;-37
2024/02/25 02:33:38;;;;;;;6.35;2.65;;;;;;;;;;5053936;28;20060;-32
2024/02/25 02:36:10;;;;;;;8.82;2.40;;;;;;;;;;5053850;28;20118;-32
2024/02/25 02:38:37;;;;;;;7.68;2.17;;;;;;;;;;5053638;28;20499;-33
2024/02/25 02:41:04;;;;;;;7.25;2.20;;;;;;;;;;5054015;28;20037;-33
2024/02/25 02:43:31;;;;;;;10.63;2.35;;;;;;;;;;5053748;28;20028;-34
2024/02/25 02:45:58;;;;;;;6.60;2.42;;;;;;;;;;5053719;28;20036;-36
2024/02/25 02:48:25;;;;;;;5.40;1.65;;;;;;;;;;5053701;28;20025;-32
2024/02/25 02:50:52;;;;;;;8.25;2.55;;;;;;;;;;5053712;28;20037;-32
2024/02/25 02:53:19;;;;;;;7.03;2.30;;;;;;;;;;5053540;28;20049;-33
2024/02/25 02:55:47;;;;;;;7.60;2.58;;;;;;;;;;5053574;28;20021;-36
2024/02/25 02:58:14;;;;;;;7.72;2.10;;;;;;;;;;5053510;28;20025;-35
2024/02/25 03:00:41;;;;;;;10.43;2.60;;;;;;;;;;5053501;28;20031;-36
2024/02/25 03:03:08;;;;;;;8.68;2.63;;;;;;;;;;5053419;28;20021;-33
2024/02/25 03:05:35;;;;;;;7.60;2.25;;;;;;;;;;5053522;28;20049;-32
2024/02/25 03:08:02;;;;;;;7.10;2.10;;;;;;;;;;5053396;28;21413;-32
2024/02/25 03:10:30;;;;;;;8.35;2.28;;;;;;;;;;5053332;28;20489;-32
2024/02/25 03:12:57;;;;;;;8.15;2.40;;;;;;;;;;5053187;28;20035;-32
2024/02/25 03:15:24;;;;;;;9.05;2.58;;;;;;;;;;5053105;28;20127;-34
2024/02/25 03:17:51;;;;;;;8.43;2.75;;;;;;;;;;5053156;28;20427;-33
2024/02/25 03:20:19;;;;;;;8.80;2.38;;;;;;;;;;5035179;28;20031;-32
2024/02/25 03:22:46;;;;;;;10.57;2.67;;;;;;;;;;5052808;28;20507;-33
2024/02/25 03:25:14;;;;;;;9.10;2.60;;;;;;;;;;5053022;28;20032;-34
2024/02/25 03:27:41;;;;;;;9.32;2.10;;;;;;;;;;5053098;28;20497;-33
2024/02/25 03:30:08;;;;;;;8.93;2.30;;;;;;;;;;5052714;28;20187;-34
2024/02/25 03:32:35;;;;;;;9.90;2.20;;;;;;;;;;5052791;28;20032;-32
2024/02/25 03:35:02;;;;;;;9.23;2.28;;;;;;;;;;5052808;28;20390;-34
2024/02/25 03:37:29;;;;;;;12.32;2.83;;;;;;;;;;5052841;28;20021;-33
2024/02/25 03:39:56;;;;;;;5.32;1.83;;;;;;;;;;5052623;28;20041;-38
2024/02/25 03:42:23;;;;;;;6.85;2.38;;;;;;;;;;5034199;28;20041;-33
2024/02/25 03:44:50;;;;;;;8.07;2.20;;;;;;;;;;5051233;28;20418;-35
2024/02/25 03:47:17;;;;;;;15.48;2.15;;;;;;;;;;5068165;28;20093;-34
2024/02/25 03:49:44;;;;;;;12.18;2.72;;;;;;;;;;5065724;28;20059;-35
2024/02/25 03:52:11;;;;;;;16.83;2.50;;;;;;;;;;5061485;28;20376;-36
2024/02/25 03:54:38;;;;;;;12.80;2.67;;;;;;;;;;5069197;28;20376;-34
2024/02/25 03:57:05;;;;;;;14.25;2.13;;;;;;;;;;5051971;28;20075;-33
2024/02/25 03:59:33;;;;;;;8.82;2.05;;;;;;;;;;5052048;28;20067;-37
2024/02/25 04:02:00;;;;;;;11.52;2.20;;;;;;;;;;5056051;28;20522;-33
2024/02/25 04:04:27;;;;;;;10.80;2.35;;;;;;;;;;5059761;28;20063;-36
2024/02/25 04:06:54;;;;;;;9.55;2.63;;;;;;;;;;5056607;28;20025;-36
2024/02/25 04:09:21;;;;;;;8.55;2.00;;;;;;;;;;5059568;28;20032;-36
2024/02/25 04:11:48;;;;;;;12.80;2.38;;;;;;;;;;5055339;28;20044;-37
2024/02/25 04:14:16;;;;;;;10.48;2.40;;;;;;;;;;5058139;28;20078;-35
2024/02/25 04:16:44;;;;;;;10.50;2.30;;;;;;;;;;5054572;28;20048;-36
2024/02/25 04:19:11;;;;;;;9.80;2.25;;;;;;;;;;5056734;28;20046;-37
2024/02/25 04:21:38;;;;;;;7.57;2.33;;;;;;;;;;5054082;28;20036;-34
2024/02/25 04:24:06;;;;;;;9.10;2.58;;;;;;;;;;5055933;28;20505;-36
2024/02/25 04:26:33;;;;;;;7.00;2.20;;;;;;;;;;5053590;28;20033;-35
2024/02/25 04:29:00;;;;;;;6.18;2.03;;;;;;;;;;5059079;28;20135;-39
2024/02/25 04:31:27;;;;;;;11.80;2.47;;;;;;;;;;5057795;28;20060;-33
2024/02/25 04:33:54;;;;;;;11.35;2.10;;;;;;;;;;5060236;28;20028;-35
2024/02/25 04:36:21;;;;;;;6.15;2.08;;;;;;;;;;5033645;28;20032;-34
2024/02/25 04:38:48;;;;;;;11.32;2.10;;;;;;;;;;5074025;28;20040;-39
2024/02/25 04:41:15;;;;;;;7.65;1.98;;;;;;;;;;5075157;28;20115;-35
2024/02/25 04:43:42;;;;;;;9.75;2.40;;;;;;;;;;5080206;28;20024;-33
2024/02/25 04:46:09;;;;;;;12.48;2.10;;;;;;;;;;5077377;28;20501;-35
2024/02/25 04:48:38;;;;;;;5.70;1.88;;;;;;;;;;5081136;28;20165;-33
2024/02/25 04:51:05;;;;;;;7.47;2.15;;;;;;;;;;5081992;28;20051;-34
2024/02/25 04:53:32;;;;;;;7.40;2.33;;;;;;;;;;5080406;28;20020;-36
2024/02/25 04:56:02;;;;;;;8.15;1.83;;;;;;;;;;5080662;28;20075;-37
2024/02/25 04:58:29;;;;;;;6.75;2.15;;;;;;;;;;5077290;28;20085;-35
2024/02/25 05:00:56;;;;;;;9.60;2.40;;;;;;;;;;5080851;28;20113;-37
2024/02/25 05:03:23;;;;;;;7.85;2.22;;;;;;;;;;5081748;28;20020;-33
2024/02/25 05:05:53;;;;;;;12.82;2.10;;;;;;;;;;5077300;28;20119;-35
2024/02/25 05:08:20;;;;;;;8.95;2.58;;;;;;;;;;5080364;28;20032;-34
2024/02/25 05:10:47;;;;;;;6.82;1.73;;;;;;;;;;5081809;28;20051;-35
2024/02/25 05:13:14;;;;;;;9.02;2.13;;;;;;;;;;5080359;28;20055;-34
2024/02/25 05:15:41;;;;;;;9.57;2.30;;;;;;;;;;5080246;28;20031;-38
2024/02/25 05:18:08;;;;;;;9.30;1.90;;;;;;;;;;5081765;28;20024;-33
2024/02/25 05:20:35;;;;;;;9.52;1.83;;;;;;;;;;5080470;28;20031;-33
2024/02/25 05:23:02;;;;;;;7.35;2.10;;;;;;;;;;5079861;28;20067;-34
2024/02/25 05:25:29;;;;;;;6.68;2.00;;;;;;;;;;5081810;28;20086;-35
2024/02/25 05:27:56;;;;;;;6.18;1.85;;;;;;;;;;5080469;28;20399;-37
2024/02/25 05:30:23;;;;;;;5.93;2.05;;;;;;;;;;5079912;28;20031;-34
2024/02/25 05:32:50;;;;;;;6.82;1.60;;;;;;;;;;5076820;28;20051;-33
2024/02/25 05:35:16;;;;;;;6.35;1.85;;;;;;;;;;5085520;28;20050;-34
2024/02/25 05:37:43;;;;;;;7.53;2.03;;;;;;;;;;5091344;28;20024;-34
2024/02/25 05:40:11;;;;;;;6.55;1.80;;;;;;;;;;5090989;28;20036;-34
2024/02/25 05:42:38;;;;;;;8.50;2.60;;;;;;;;;;5091220;28;20032;-34
2024/02/25 05:45:05;;;;;;;6.45;1.98;;;;;;;;;;5091164;28;20055;-34
2024/02/25 05:47:32;;;;;;;6.43;2.00;;;;;;;;;;5091131;28;20032;-38
2024/02/25 05:49:59;;;;;;;7.68;1.90;;;;;;;;;;5091124;28;20107;-36
2024/02/25 05:52:26;;;;;;;6.70;1.85;;;;;;;;;;5092308;28;20829;-34
2024/02/25 05:54:55;;;;;;;5.93;1.90;;;;;;;;;;5094819;28;20073;-36
2024/02/25 05:57:22;;;;;;;6.93;2.20;;;;;;;;;;5094415;28;20028;-37
2024/02/25 05:59:49;;;;;;;6.20;1.88;;;;;;;;;;5094675;28;20020;-36
2024/02/25 06:02:17;;;;;;;5.05;1.98;;;;;;;;;;5065850;28;20070;-35
2024/02/25 06:04:44;;;;;;;7.72;1.75;;;;;;;;;;5054432;28;20029;-34
2024/02/25 06:07:11;;;;;;;7.90;2.13;;;;;;;;;;5054489;28;20025;-39
2024/02/25 06:09:38;;;;;;;10.45;1.83;;;;;;;;;;5054366;28;20104;-37
2024/02/25 06:12:05;;;;;;;3.85;1.33;;;;;;;;;;5054404;28;20025;-35
2024/02/25 06:14:32;;;;;;;8.85;2.20;;;;;;;;;;5054366;28;20064;-35
2024/02/25 06:16:59;;;;;;;8.40;2.05;;;;;;;;;;5054313;28;20024;-35
2024/02/25 06:19:26;;;;;;;6.55;1.70;;;;;;;;;;5054105;28;20029;-34
2024/02/25 06:21:53;;;;;;;5.80;1.98;;;;;;;;;;5054085;28;20021;-35
2024/02/25 06:24:20;;;;;;;7.00;1.90;;;;;;;;;;5054280;28;20110;-35
2024/02/25 06:26:47;;;;;;;7.78;1.92;;;;;;;;;;5054159;28;20100;-34
2024/02/25 06:29:14;;;;;;;5.88;1.92;;;;;;;;;;5054016;28;20028;-35
2024/02/25 06:31:43;;;;;;;6.30;1.75;;;;;;;;;;5053954;28;20033;-34
2024/02/25 06:34:10;;;;;;;4.63;1.70;;;;;;;;;;5053832;28;20115;-35
2024/02/25 06:36:38;;;;;;;5.93;1.65;;;;;;;;;;5053962;28;20104;-35
2024/02/25 06:39:05;;;;;;;6.18;1.90;;;;;;;;;;5053612;28;20052;-35
2024/02/25 06:41:32;;;;;;;7.70;1.95;;;;;;;;;;5053644;28;20363;-36
2024/02/25 06:43:59;;;;;;;7.28;2.03;;;;;;;;;;5053772;28;20056;-37
2024/02/25 06:46:26;;;;;;;7.03;2.33;;;;;;;;;;5053607;28;20129;-34
2024/02/25 06:48:53;;;;;;;10.38;2.33;;;;;;;;;;5053614;28;20108;-35
2024/02/25 06:51:21;;;;;;;9.27;2.00;;;;;;;;;;5053563;28;20083;-37
2024/02/25 06:53:48;;;;;;;8.35;2.20;;;;;;;;;;5053953;28;20477;-35
2024/02/25 06:56:18;;;;;;;7.30;1.98;;;;;;;;;;5053469;28;20473;-34
2024/02/25 06:58:45;;;;;;;7.57;1.92;;;;;;;;;;5053622;28;20482;-39
2024/02/25 07:01:13;;;;;;;6.38;1.50;;;;;;;;;;5053297;28;20399;-34
2024/02/25 07:03:46;;;;;;;5.93;2.00;;;;;;;;;;5052955;28;20027;-35
2024/02/25 07:06:13;;;;;;;10.55;2.28;;;;;;;;;;5053251;28;20400;-33
2024/02/25 07:08:40;;;;;;;7.50;2.10;;;;;;;;;;5053251;28;20053;-33
2024/02/25 07:11:15;;;;;;;6.82;1.85;;;;;;;;;;5053216;28;20029;-33
2024/02/25 07:13:43;;;;;;;7.50;1.70;;;;;;;;;;5053418;28;20038;-34
2024/02/25 07:16:09;;;;;;;12.02;2.67;;;;;;;;;;5053258;28;20533;-33
2024/02/25 07:18:36;;;;;;;7.13;2.15;;;;;;;;;;5053089;28;20544;-34
2024/02/25 07:21:04;;;;;;;4.93;1.77;;;;;;;;;;5053011;28;20112;-33
2024/02/25 07:23:31;;;;;;;6.90;2.20;;;;;;;;;;5049666;28;20037;-33
2024/02/25 07:25:58;;;;;;;10.00;2.60;;;;;;;;;;5064406;28;20037;-35
2024/02/25 07:28:25;;;;;;;9.05;2.15;;;;;;;;;;5072791;28;20106;-33
2024/02/25 07:30:52;;;;;;;7.75;2.08;;;;;;;;;;5072903;28;20035;-33
2024/02/25 07:33:19;;;;;;;7.72;2.13;;;;;;;;;;5072710;28;20032;-35
2024/02/25 07:35:46;;;;;;;7.57;2.28;;;;;;;;;;5072759;28;20745;-35
2024/02/25 07:38:13;;;;;;;9.40;2.03;;;;;;;;;;5072553;28;20082;-34
2024/02/25 07:40:40;;;;;;;5.65;1.52;;;;;;;;;;5072648;28;20397;-35
2024/02/25 07:43:06;;;;;;;8.32;2.33;;;;;;;;;;5072578;28;20021;-35
2024/02/25 07:45:33;;;;;;;8.20;2.13;;;;;;;;;;5072491;28;20425;-34
2024/02/25 07:48:00;;;;;;;8.80;2.22;;;;;;;;;;5072390;28;20060;-33
2024/02/25 07:50:27;;;;;;;5.40;1.80;;;;;;;;;;5072455;28;20017;-33
2024/02/25 07:52:54;;;;;;;6.57;2.25;;;;;;;;;;5072400;28;20029;-34
2024/02/25 07:55:21;;;;;;;6.22;1.85;;;;;;;;;;5072345;28;20031;-35
2024/02/25 07:57:48;;;;;;;9.30;2.20;;;;;;;;;;5072344;28;20426;-35
2024/02/25 08:00:15;;;;;;;5.95;2.00;;;;;;;;;;5072212;28;20103;-34
2024/02/25 08:02:42;;;;;;;9.73;2.40;;;;;;;;;;5072094;28;20034;-35
2024/02/25 08:05:09;;;;;;;12.30;2.40;;;;;;;;;;5061302;28;20032;-36
2024/02/25 08:07:36;;;;;;;8.18;2.58;;;;;;;;;;5052172;28;20040;-34
2024/02/25 08:10:03;;;;;;;7.72;2.10;;;;;;;;;;5052063;28;20379;-33
2024/02/25 08:12:31;;;;;;;6.00;2.10;;;;;;;;;;5051942;28;20025;-34
2024/02/25 08:14:58;;;;;;;7.45;2.17;;;;;;;;;;5051749;28;20043;-34
2024/02/25 08:17:25;;;;;;;10.80;2.08;;;;;;;;;;5051385;28;20020;-33
2024/02/25 08:19:52;;;;;;;7.55;2.30;;;;;;;;;;5051841;28;20065;-34
2024/02/25 08:22:19;;;;;;;8.27;2.10;;;;;;;;;;5051932;28;20033;-33
2024/02/25 08:24:46;;;;;;;8.60;2.50;;;;;;;;;;5051968;28;20078;-36
2024/02/25 08:27:13;;;;;;;7.95;2.33;;;;;;;;;;5052150;28;20412;-35
2024/02/25 08:29:44;;;;;;;7.40;1.88;;;;;;;;;;5051650;28;20112;-33
2024/02/25 08:32:11;;;;;;;6.07;1.73;;;;;;;;;;5051554;28;20037;-33
2024/02/25 08:34:38;;;;;;;7.97;2.40;;;;;;;;;;5051739;28;20021;-34
2024/02/25 08:37:04;;;;;;;9.07;1.98;;;;;;;;;;5051748;28;20514;-34
2024/02/25 08:39:31;;;;;;;9.90;2.47;;;;;;;;;;5051435;28;20037;-35
2024/02/25 08:41:58;;;;;;;7.18;2.10;;;;;;;;;;5051610;28;20029;-33
2024/02/25 08:44:25;;;;;;;6.75;1.98;;;;;;;;;;5051709;28;20105;-33
2024/02/25 08:46:52;;;;;;;5.75;2.13;;;;;;;;;;5051578;28;20017;-35
2024/02/25 08:49:19;;;;;;;6.97;2.28;;;;;;;;;;5051507;28;20021;-33
2024/02/25 08:51:46;;;;;;;7.03;1.95;;;;;;;;;;5051493;28;20036;-35
2024/02/25 08:54:13;;;;;;;8.65;2.22;;;;;;;;;;5051535;28;20100;-34
2024/02/25 08:56:40;;;;;;;5.43;1.80;;;;;;;;;;5051569;28;20021;-34
2024/02/25 08:59:07;;;;;;;7.97;1.75;;;;;;;;;;5051320;28;20040;-33
2024/02/25 09:01:34;;;;;;;5.80;1.85;;;;;;;;;;5051342;28;20096;-34
2024/02/25 09:04:01;;;;;;;7.80;2.10;;;;;;;;;;5051385;28;20529;-34
2024/02/25 09:06:28;;;;;;;5.55;1.85;;;;;;;;;;5051258;28;20029;-34
2024/02/25 09:08:57;;;;;;;8.50;2.55;;;;;;;;;;5051225;28;20475;-34
2024/02/25 09:11:24;;;;;;;4.88;1.92;;;;;;;;;;5051080;28;20061;-36
2024/02/25 09:13:51;;;;;;;7.22;1.90;;;;;;;;;;5051116;28;20395;-33
2024/02/25 09:16:18;;;;;;;7.95;2.03;;;;;;;;;;5051266;28;20025;-34
2024/02/25 09:18:45;;;;;;;7.25;2.08;;;;;;;;;;5067468;28;20059;-34
2024/02/25 09:21:12;;;;;;;6.15;2.13;;;;;;;;;;5071215;28;20410;-37
2024/02/25 09:23:38;;;;;;;5.18;1.95;;;;;;;;;;5071293;28;20025;-34
2024/02/25 09:26:09;;;;;;;5.68;1.98;;;;;;;;;;5071265;28;20021;-34
2024/02/25 09:28:36;;;;;;;9.50;2.35;;;;;;;;;;5074364;28;20033;-35
2024/02/25 09:31:03;;;;;;;9.15;2.25;;;;;;;;;;5075025;28;20043;-37
2024/02/25 09:33:30;;;;;;;5.63;1.73;;;;;;;;;;5057390;28;20029;-34
2024/02/25 09:35:57;;;;;;;7.60;2.22;;;;;;;;;;5075143;28;20028;-35
2024/02/25 09:38:27;;;;;;;6.90;2.13;;;;;;;;;;5074831;28;20043;-36
2024/02/25 09:40:59;;;;;;;7.18;2.33;;;;;;;;;;5074714;28;20479;-35
2024/02/25 09:43:27;;;;;;;8.35;2.20;;;;;;;;;;5074844;28;20031;-37
2024/02/25 09:45:55;;;;;;;10.20;2.50;;;;;;;;;;5075025;28;20078;-35
2024/02/25 09:48:22;;;;;;;7.25;2.33;;;;;;;;;;5074735;28;20444;-39
2024/02/25 09:50:50;;;;;;;5.82;2.05;;;;;;;;;;5074742;28;20039;-36
2024/02/25 09:53:18;;;;;;;11.13;2.60;;;;;;;;;;5056693;28;20522;-35
2024/02/25 09:55:45;;;;;;;7.75;2.50;;;;;;;;;;5074639;28;20043;-34
2024/02/25 09:58:13;;;;;;;5.22;2.00;;;;;;;;;;5074676;28;20020;-34
2024/02/25 10:00:40;;;;;;;9.60;2.25;;;;;;;;;;5074439;28;20037;-36
2024/02/25 10:03:12;;;;;;;6.75;2.35;;;;;;;;;;5074518;28;20048;-34
2024/02/25 10:05:42;;;;;;;6.22;2.28;;;;;;;;;;5074390;28;20029;-35
2024/02/25 10:08:13;;;;;;;6.95;2.13;;;;;;;;;;5074471;28;20413;-36
2024/02/25 10:10:41;;;;;;;7.93;2.30;;;;;;;;;;5074384;28;20393;-34
2024/02/25 10:13:09;;;;;;;5.68;1.83;;;;;;;;;;5074223;28;20368;-39
2024/02/25 10:15:38;;;;;;;7.68;2.15;;;;;;;;;;5074207;28;20060;-38
2024/02/25 10:18:05;;;;;;;9.63;2.63;;;;;;;;;;5074112;28;20028;-38
2024/02/25 10:20:31;;;;;;;5.88;1.98;;;;;;;;;;5074246;28;20020;-37
2024/02/25 10:23:08;;;;;;;8.20;2.38;;;;;;;;;;5074099;28;20050;-36
2024/02/25 10:25:37;;;;;;;7.38;2.17;;;;;;;;;;5074252;28;20036;-36
2024/02/25 10:28:17;;;;;;;6.15;1.85;;;;;;;;;;5073900;28;20037;-34
2024/02/25 10:30:59;;;;;;;9.60;2.35;;;;;;;;;;5074042;28;20048;-34
2024/02/25 10:33:27;;;;;;;8.48;2.50;;;;;;;;;;5074034;28;20485;-34
2024/02/25 10:36:08;;;;;;;11.70;2.42;;;;;;;;;;5073941;28;20044;-35
2024/02/25 10:38:39;;;;;;;6.78;2.00;;;;;;;;;;5072745;28;20060;-35
2024/02/25 10:41:10;;;;;;;6.97;2.33;;;;;;;;;;5073658;28;20450;-35
2024/02/25 10:43:37;;;;;;;7.22;2.45;;;;;;;;;;5073786;28;20773;-35
2024/02/25 10:46:17;;;;;;;9.88;2.30;;;;;;;;;;5073880;28;20090;-36
2024/02/25 10:48:44;;;;;;;8.43;1.98;;;;;;;;;;5073726;28;20052;-38
2024/02/25 10:51:11;;;;;;;8.15;2.50;;;;;;;;;;5073515;28;20032;-35
2024/02/25 10:53:41;;;;;;;6.28;1.90;;;;;;;;;;5073658;28;20399;-34
2024/02/25 10:56:12;;;;;;;6.05;2.13;;;;;;;;;;5073485;28;20056;-36
2024/02/25 10:58:39;;;;;;;6.35;2.30;;;;;;;;;;5073560;28;20024;-35
2024/02/25 11:01:06;;;;;;;6.68;2.35;;;;;;;;;;5073394;28;20032;-35
2024/02/25 11:03:33;;;;;;;8.63;2.20;;;;;;;;;;5073408;28;20025;-36
2024/02/25 11:06:06;;;;;;;6.38;2.50;;;;;;;;;;5073452;28;20067;-38
2024/02/25 11:08:37;;;;;;;6.20;2.15;;;;;;;;;;5073350;28;20036;-36
2024/02/25 11:11:10;;;;;;;6.93;1.98;;;;;;;;;;5073226;28;20040;-33
2024/02/25 11:13:46;;;;;;;6.82;1.65;;;;;;;;;;5073290;28;20107;-33
2024/02/25 11:16:13;;;;;;;6.85;1.90;;;;;;;;;;5073210;28;20029;-35
2024/02/25 11:18:43;;;;;;;6.13;1.98;;;;;;;;;;5073175;28;20036;-37
2024/02/25 11:21:11;;;;;;;6.30;1.92;;;;;;;;;;5053632;28;20045;-34
2024/02/25 11:23:41;;;;;;;4.78;1.85;;;;;;;;;;5053129;28;20051;-36
2024/02/25 11:26:26;;;;;;;7.30;2.20;;;;;;;;;;5052701;28;20037;-34
2024/02/25 11:29:22;;;;;;;7.10;2.10;;;;;;;;;;5072109;28;20383;-32
2024/02/25 11:32:02;;;;;;;7.03;1.90;;;;;;;;;;5035925;28;20033;-36
2024/02/25 11:34:29;;;;;;;6.15;2.03;;;;;;;;;;5052855;28;20048;-38
2024/02/25 11:36:57;;;;;;;8.65;2.92;;;;;;;;;;5052665;28;20037;-34
2024/02/25 11:39:27;;;;;;;7.53;2.00;;;;;;;;;;5052481;28;20380;-32
2024/02/25 11:41:59;;;;;;;8.32;2.28;;;;;;;;;;5045078;28;20098;-33
2024/02/25 11:44:27;;;;;;;7.50;2.05;;;;;;;;;;5052780;28;20029;-32
2024/02/25 11:46:59;;;;;;;8.30;2.30;;;;;;;;;;5052528;28;20021;-35
2024/02/25 11:49:27;;;;;;;6.95;2.03;;;;;;;;;;5052587;28;20438;-36
2024/02/25 11:51:54;;;;;;;8.35;2.03;;;;;;;;;;5052361;28;20418;-34
2024/02/25 11:54:21;;;;;;;7.18;2.20;;;;;;;;;;5052465;28;20025;-35
2024/02/25 11:56:49;;;;;;;5.70;2.00;;;;;;;;;;5052445;28;20072;-36
2024/02/25 11:59:20;;;;;;;5.70;2.08;;;;;;;;;;5052407;28;20450;-35
2024/02/25 12:01:51;;;;;;;6.82;2.30;;;;;;;;;;5052328;28;20056;-36
2024/02/25 12:04:19;;;;;;;8.23;2.00;;;;;;;;;;5052425;28;20025;-35
2024/02/25 12:06:46;;;;;;;8.20;2.13;;;;;;;;;;5052372;28;20075;-35
2024/02/25 12:09:16;;;;;;;8.93;2.30;;;;;;;;;;5034170;28;20029;-32
2024/02/25 12:11:44;;;;;;;8.82;2.58;;;;;;;;;;5034067;28;20116;-32
2024/02/25 12:14:14;;;;;;;8.18;2.40;;;;;;;;;;5052286;28;20398;-33
2024/02/25 12:16:41;;;;;;;5.75;2.03;;;;;;;;;;5052161;28;20036;-34
2024/02/25 12:19:10;;;;;;;5.68;1.80;;;;;;;;;;5052070;28;20036;-33
2024/02/25 12:21:37;;;;;;;5.82;2.33;;;;;;;;;;5051993;28;20025;-33
2024/02/25 12:24:06;;;;;;;11.18;2.80;;;;;;;;;;5051971;28;20056;-36
2024/02/25 12:26:49;;;;;;;10.05;3.10;;;;;;;;;;5051921;28;20049;-34
2024/02/25 12:29:17;;;;;;;7.88;2.08;;;;;;;;;;5051813;28;20037;-37
2024/02/25 12:31:44;;;;;;;8.25;2.55;;;;;;;;;;5051843;28;20025;-35
2024/02/25 12:34:11;;;;;;;8.52;2.75;;;;;;;;;;5051782;28;20039;-35
2024/02/25 12:36:38;;;;;;;7.13;2.58;;;;;;;;;;5051872;28;20028;-34
2024/02/25 12:39:10;;;;;;;6.57;2.10;;;;;;;;;;5051581;28;20091;-35
2024/02/25 12:41:37;;;;;;;7.38;2.85;;;;;;;;;;5071685;28;20043;-36
2024/02/25 12:44:05;;;;;;;7.07;2.22;;;;;;;;;;5091940;28;20107;-35
2024/02/25 12:46:33;;;;;;;13.32;2.92;;;;;;;;;;5091746;28;20035;-36
2024/02/25 12:49:11;;;;;;;8.75;2.70;;;;;;;;;;5079145;28;20486;-38
2024/02/25 12:51:38;;;;;;;11.57;2.38;;;;;;;;;;5071440;28;20478;-37
2024/02/25 12:54:09;;;;;;;7.35;2.13;;;;;;;;;;5071640;28;20051;-36
2024/02/25 12:56:42;;;;;;;6.93;2.22;;;;;;;;;;5071606;28;20047;-36
2024/02/25 12:59:13;;;;;;;8.07;2.28;;;;;;;;;;5071509;28;20150;-34
2024/02/25 13:01:43;;;;;;;10.77;2.58;;;;;;;;;;5070909;28;20500;-35
2024/02/25 13:04:11;;;;;;;9.00;2.53;;;;;;;;;;5071608;28;20163;-36
2024/02/25 13:06:39;;;;;;;6.63;1.92;;;;;;;;;;5071508;28;20059;-35
2024/02/25 13:09:07;;;;;;;7.43;2.00;;;;;;;;;;5077184;28;20410;-37
2024/02/25 13:11:34;;;;;;;7.80;2.40;;;;;;;;;;5067410;28;20653;-34
2024/02/25 13:14:01;;;;;;;7.82;2.47;;;;;;;;;;5051073;28;20033;-36
2024/02/25 13:16:28;;;;;;;8.18;1.88;;;;;;;;;;5069463;28;20356;-35
2024/02/25 13:18:55;;;;;;;7.53;2.47;;;;;;;;;;5071223;28;20111;-37
2024/02/25 13:21:23;;;;;;;11.07;2.63;;;;;;;;;;5060296;28;20029;-36
2024/02/25 13:23:50;;;;;;;7.85;2.40;;;;;;;;;;5061285;28;20041;-35
2024/02/25 13:26:17;;;;;;;7.85;2.45;;;;;;;;;;5057463;28;20043;-37
2024/02/25 13:28:44;;;;;;;11.35;2.40;;;;;;;;;;5053197;28;20911;-34
2024/02/25 13:31:11;;;;;;;9.32;2.60;;;;;;;;;;5070415;28;20037;-37
2024/02/25 13:33:38;;;;;;;7.75;2.70;;;;;;;;;;5070376;28;20035;-36
2024/02/25 13:36:06;;;;;;;9.50;2.38;;;;;;;;;;5068980;28;20039;-41
2024/02/25 13:38:33;;;;;;;7.47;1.95;;;;;;;;;;5054706;28;20414;-36
2024/02/25 13:41:00;;;;;;;9.23;2.90;;;;;;;;;;5062163;28;20036;-33
2024/02/25 13:43:27;;;;;;;11.77;2.85;;;;;;;;;;5062108;28;20043;-34
2024/02/25 13:45:54;;;;;;;6.32;2.08;;;;;;;;;;5067714;28;20115;-34
2024/02/25 13:48:21;;;;;;;10.45;2.38;;;;;;;;;;5064716;28;20086;-32
2024/02/25 13:50:48;;;;;;;7.93;2.78;;;;;;;;;;5057697;28;20047;-33
2024/02/25 13:53:16;;;;;;;7.68;2.30;;;;;;;;;;5050772;28;20037;-37
2024/02/25 13:55:43;;;;;;;9.02;2.70;;;;;;;;;;5054302;28;20032;-37
2024/02/25 13:58:10;;;;;;;6.05;2.17;;;;;;;;;;5059931;28;20074;-34
2024/02/25 14:00:37;;;;;;;10.15;2.63;;;;;;;;;;5068055;28;20067;-34
2024/02/25 14:03:04;;;;;;;9.18;2.58;;;;;;;;;;5069881;28;20474;-35
2024/02/25 14:05:31;;;;;;;12.85;2.72;;;;;;;;;;5068396;28;20047;-38
2024/02/25 14:07:58;;;;;;;8.27;2.45;;;;;;;;;;5057008;28;20024;-35
2024/02/25 14:10:25;;;;;;;8.68;2.60;;;;;;;;;;5057096;28;20056;-34
2024/02/25 14:12:52;;;;;;;12.93;3.28;;;;;;;;;;5056989;28;20356;-33
2024/02/25 14:15:19;;;;;;;10.77;2.80;;;;;;;;;;5059541;28;20025;-34
2024/02/25 14:17:55;;;;;;;11.23;3.13;;;;;;;;;;5068775;28;20044;-35
2024/02/25 14:20:29;;;;;;;11.73;3.58;;;;;;;;;;5058449;28;20025;-35
2024/02/25 14:22:56;;;;;;;18.40;3.75;;;;;;;;;;5054738;28;20033;-35
2024/02/25 14:25:24;;;;;;;11.75;4.40;;;;;;;;;;5055156;28;20474;-34
2024/02/25 14:27:51;;;;;;;14.88;4.72;;;;;;;;;;5056266;28;20537;-36
2024/02/25 14:30:18;;;;;;;19.00;5.47;;;;;;;;;;5070396;28;20028;-37
2024/02/25 14:32:45;;;;;;;12.00;4.88;;;;;;;;;;5063143;28;20131;-33
2024/02/25 14:35:13;;;;;;;19.40;5.45;;;;;;;;;;5066497;28;20024;-35
2024/02/25 14:37:43;;;;;;;16.77;5.53;;;;;;;;;;5064125;28;20036;-35
2024/02/25 14:40:10;;;;;;;12.57;5.07;;;;;;;;;;5069091;28;20414;-35
2024/02/25 14:42:37;;;;;;;14.75;5.32;;;;;;;;;;5052304;28;20068;-34